Time;durP1;ratioP1;P1;durP2;ratioP2;P2;SDS_P1;SDS_P2;PMS_P1;PMS_P2;Temp;Humidity;BMP_temperature;BMP_pressure;BME280_temperature;BME280_humidity;BME280_pressure;Samples;Min_cycle;Max_cycle;Signal;HPM_P1;HPM_P2
2022/03/06 00:00:51;;;;;;;38.20;23.90;;;;;;;0.83;66.57;102237.56;5035881;28;20382;-59
2022/03/06 00:03:16;;;;;;;40.38;24.05;;;;;;;0.81;66.83;102244.56;5035235;28;20041;-59
2022/03/06 00:05:41;;;;;;;37.70;23.10;;;;;;;0.77;66.51;102241.13;5035224;28;20080;-59
2022/03/06 00:08:07;;;;;;;37.05;23.08;;;;;;;0.76;66.90;102247.25;5035803;28;20543;-59
2022/03/06 00:10:32;;;;;;;39.15;23.40;;;;;;;0.74;66.95;102244.66;5035102;28;20061;-59
2022/03/06 00:12:58;;;;;;;37.85;23.95;;;;;;;0.70;66.91;102248.19;5035139;28;20073;-59
2022/03/06 00:15:23;;;;;;;38.55;23.98;;;;;;;0.69;67.33;102245.59;5047753;28;20044;-59
2022/03/06 00:17:49;;;;;;;37.10;22.67;;;;;;;0.67;67.05;102242.16;5054702;28;20033;-59
2022/03/06 00:20:15;;;;;;;44.03;23.35;;;;;;;0.65;67.37;102243.91;5055114;28;20072;-59
2022/03/06 00:22:40;;;;;;;39.35;22.50;;;;;;;0.64;67.34;102250.03;5054741;28;20048;-59
2022/03/06 00:25:07;;;;;;;36.05;22.55;;;;;;;0.57;67.15;102248.34;5044449;28;20117;-59
2022/03/06 00:27:33;;;;;;;41.22;23.38;;;;;;;0.57;67.52;102250.97;5035044;28;20476;-58
2022/03/06 00:29:59;;;;;;;38.00;22.90;;;;;;;0.54;67.22;102250.13;5035082;28;20060;-59
2022/03/06 00:32:25;;;;;;;38.42;24.13;;;;;;;0.51;67.22;102247.53;5034695;28;20045;-58
2022/03/06 00:34:50;;;;;;;42.08;22.70;;;;;;;0.50;67.42;102253.69;5035512;28;20049;-58
2022/03/06 00:37:15;;;;;;;41.35;23.65;;;;;;;0.48;67.63;102252.84;5034764;28;20033;-59
2022/03/06 00:39:42;;;;;;;37.80;24.35;;;;;;;0.43;67.24;102249.38;5034819;28;20034;-59
2022/03/06 00:42:08;;;;;;;37.53;22.70;;;;;;;0.45;67.19;102260.72;5034426;28;20033;-59
2022/03/06 00:44:34;;;;;;;39.55;22.83;;;;;;;0.44;67.17;102261.59;5034985;28;20051;-59
2022/03/06 00:46:59;;;;;;;38.38;24.08;;;;;;;0.44;67.57;102261.59;5020506;28;20455;-59
2022/03/06 00:49:24;;;;;;;38.13;22.80;;;;;;;0.44;67.23;102277.25;5036426;28;20474;-59
2022/03/06 00:51:50;;;;;;;38.70;23.10;;;;;;;0.41;67.18;102281.66;5054058;28;20037;-59
2022/03/06 00:54:15;;;;;;;36.00;22.42;;;;;;;0.39;67.88;102281.69;5042823;28;20073;-59
2022/03/06 00:56:40;;;;;;;35.70;22.88;;;;;;;0.35;67.56;102277.34;5034106;28;20029;-59
2022/03/06 00:59:05;;;;;;;39.22;22.80;;;;;;;0.33;67.40;102280.00;5033420;28;20041;-59
2022/03/06 01:01:31;;;;;;;40.95;22.85;;;;;;;0.30;67.19;102276.53;5034528;28;20456;-59
2022/03/06 01:03:56;;;;;;;34.80;21.27;;;;;;;0.29;67.33;102285.28;5034102;28;20041;-59
2022/03/06 01:06:21;;;;;;;37.00;22.35;;;;;;;0.26;67.13;102280.94;5048418;28;20431;-59
2022/03/06 01:08:46;;;;;;;36.05;23.02;;;;;;;0.27;67.83;102287.06;5053389;28;20037;-59
2022/03/06 01:11:12;;;;;;;36.97;22.80;;;;;;;0.26;67.66;102280.09;5047860;28;20040;-58
2022/03/06 01:13:37;;;;;;;38.28;22.75;;;;;;;0.23;68.06;102285.34;5053767;28;20080;-59
2022/03/06 01:16:02;;;;;;;38.85;23.08;;;;;;;0.22;67.69;102286.19;5047540;28;20033;-59
2022/03/06 01:18:27;;;;;;;37.33;22.83;;;;;;;0.20;68.52;102282.75;5053805;28;20099;-59
2022/03/06 01:20:53;;;;;;;38.15;23.15;;;;;;;0.20;68.37;102288.88;5047113;28;20036;-59
2022/03/06 01:23:18;;;;;;;37.97;22.23;;;;;;;0.17;68.10;102289.75;5033805;28;20052;-59
2022/03/06 01:25:44;;;;;;;35.13;21.98;;;;;;;0.14;68.28;102289.78;5033487;28;20431;-59
2022/03/06 01:28:09;;;;;;;40.28;23.52;;;;;;;0.12;68.57;102288.06;5034404;28;20060;-58
2022/03/06 01:30:34;;;;;;;33.95;22.30;;;;;;;0.09;68.51;102286.34;5035028;28;20124;-58
2022/03/06 01:33:00;;;;;;;37.08;23.15;;;;;;;0.06;68.37;102286.38;5033451;28;20404;-58
2022/03/06 01:35:26;;;;;;;39.47;23.65;;;;;;;0.03;68.41;102296.84;5033715;28;20041;-58
2022/03/06 01:37:51;;;;;;;37.75;23.35;;;;;;;0.01;68.60;102298.59;5033468;28;20029;-58
2022/03/06 01:40:18;;;;;;;38.05;22.50;;;;;;;-0.03;68.55;102299.53;5034047;28;20444;-58
2022/03/06 01:42:45;;;;;;;38.20;23.17;;;;;;;-0.04;68.93;102303.00;5033503;28;20072;-58
2022/03/06 01:45:11;;;;;;;34.90;21.88;;;;;;;-0.06;68.64;102304.78;5033662;28;20356;-58
2022/03/06 01:47:44;;;;;;;39.67;23.80;;;;;;;-0.10;68.99;102293.50;5033409;28;20037;-58
2022/03/06 01:50:17;;;;;;;35.58;23.13;;;;;;;-0.13;68.83;102303.97;5033544;28;20041;-58
2022/03/06 01:52:43;;;;;;;37.25;20.80;;;;;;;-0.12;69.30;102304.81;5033182;28;20048;-58
2022/03/06 01:55:09;;;;;;;38.63;23.90;;;;;;;-0.19;69.32;102307.47;5016121;28;20072;-58
2022/03/06 01:57:34;;;;;;;40.40;23.30;;;;;;;-0.17;69.40;102309.22;5032876;28;20029;-58
2022/03/06 02:00:04;;;;;;;34.10;22.90;;;;;;;-0.20;69.69;102307.47;5033578;28;20480;-57
2022/03/06 02:02:29;;;;;;;;;;;;;;;-0.15;68.09;102307.44;5016042;28;20053;-58
2022/03/06 02:04:55;;;;;;;35.58;21.85;;;;;;;-0.20;69.38;102304.88;5035806;28;19916;-58
2022/03/06 02:07:20;;;;;;;36.58;22.77;;;;;;;-0.26;69.52;102299.72;5053204;28;20044;-58
2022/03/06 02:09:45;;;;;;;37.03;22.00;;;;;;;-0.25;69.85;102302.31;5052468;28;20422;-58
2022/03/06 02:12:23;;;;;;;34.33;21.35;;;;;;;-0.26;69.88;102312.78;5035162;28;20045;-58
2022/03/06 02:14:50;;;;;;;38.17;23.10;;;;;;;-0.27;69.67;102305.81;5053085;28;20045;-57
2022/03/06 02:17:15;;;;;;;36.42;22.45;;;;;;;-0.28;70.05;102315.41;5045250;28;20108;-58
2022/03/06 02:19:57;;;;;;;38.85;22.88;;;;;;;-0.30;69.71;102311.94;5032951;28;20547;-58
2022/03/06 02:22:26;;;;;;;38.85;23.00;;;;;;;-0.39;70.07;102298.94;5032859;28;20394;-58
2022/03/06 02:24:52;;;;;;;38.47;21.75;;;;;;;-0.35;69.90;102313.72;5033258;28;20034;-58
2022/03/06 02:27:18;;;;;;;38.92;22.45;;;;;;;-0.36;69.91;102304.13;5032745;28;20049;-58
2022/03/06 02:29:44;;;;;;;34.03;21.88;;;;;;;-0.38;70.32;102309.38;5015292;28;20044;-58
2022/03/06 02:32:11;;;;;;;35.00;22.30;;;;;;;-0.39;70.18;102312.00;5033118;28;20152;-58
2022/03/06 02:34:42;;;;;;;37.20;22.73;;;;;;;-0.42;70.67;102312.00;5033706;28;20030;-58
2022/03/06 02:37:08;;;;;;;37.13;21.85;;;;;;;-0.41;70.28;102322.44;5032893;28;20030;-58
2022/03/06 02:39:34;;;;;;;39.15;22.73;;;;;;;-0.45;70.54;102320.75;5032866;28;20053;-58
2022/03/06 02:42:01;;;;;;;37.60;21.77;;;;;;;-0.46;70.75;102321.59;5033693;28;20037;-58
2022/03/06 02:44:27;;;;;;;35.38;21.20;;;;;;;-0.47;70.87;102325.09;5032942;28;20037;-57
2022/03/06 02:46:52;;;;;;;37.78;22.95;;;;;;;-0.49;70.37;102324.22;5032866;28;20041;-58
2022/03/06 02:49:18;;;;;;;35.75;22.35;;;;;;;-0.51;70.76;102323.38;5047679;28;20120;-58
2022/03/06 02:51:46;;;;;;;36.88;21.70;;;;;;;-0.53;71.26;102325.16;5052704;28;20087;-58
2022/03/06 02:54:14;;;;;;;36.63;22.65;;;;;;;-0.58;71.27;102325.16;5034678;28;20087;-58
2022/03/06 02:56:40;;;;;;;35.30;21.25;;;;;;;-0.59;71.26;102330.41;5035051;28;20438;-58
2022/03/06 02:59:06;;;;;;;32.22;20.50;;;;;;;-0.63;70.98;102324.34;5032948;28;20387;-58
2022/03/06 03:01:37;;;;;;;34.88;21.65;;;;;;;-0.65;71.71;102327.81;5044296;28;20040;-57
2022/03/06 03:04:04;;;;;;;30.67;20.10;;;;;;;-0.70;72.07;102325.25;5052543;28;20037;-58
2022/03/06 03:06:30;;;;;;;36.15;20.63;;;;;;;-0.72;72.25;102326.13;5052491;28;20049;-58
2022/03/06 03:08:55;;;;;;;37.03;22.30;;;;;;;-0.72;72.20;102331.34;5052503;28;20475;-58
2022/03/06 03:11:20;;;;;;;34.03;21.00;;;;;;;-0.74;72.12;102328.75;5052545;28;20036;-58
2022/03/06 03:13:46;;;;;;;33.13;21.10;;;;;;;-0.75;72.18;102337.44;5052192;28;20544;-58
2022/03/06 03:16:11;;;;;;;31.80;20.08;;;;;;;-0.76;72.07;102333.97;5052472;28;20041;-58
2022/03/06 03:18:36;;;;;;;34.13;20.58;;;;;;;-0.77;72.12;102333.97;5052507;28;20052;-58
2022/03/06 03:21:01;;;;;;;35.50;20.92;;;;;;;-0.76;72.63;102335.72;5046185;28;20450;-58
2022/03/06 03:23:27;;;;;;;32.58;20.83;;;;;;;-0.77;72.33;102339.19;5036020;28;20052;-58
2022/03/06 03:25:55;;;;;;;33.55;20.17;;;;;;;-0.81;72.09;102337.47;5078954;23;20056;-85
2022/03/06 03:28:21;;;;;;;33.70;20.52;;;;;;;-0.87;72.01;102330.53;5019777;28;20476;-85
2022/03/06 03:30:46;;;;;;;34.35;20.30;;;;;;;-0.88;72.16;102327.94;5037563;28;20128;-84
2022/03/06 03:33:11;;;;;;;34.80;21.33;;;;;;;-0.92;72.29;102327.09;5037476;28;20053;-85
2022/03/06 03:35:36;;;;;;;34.63;21.40;;;;;;;-1.00;73.03;102327.16;5019433;28;20514;-85
2022/03/06 03:38:02;;;;;;;34.60;21.63;;;;;;;-1.02;73.28;102328.88;5019998;28;20388;-85
2022/03/06 03:40:27;;;;;;;33.33;21.13;;;;;;;-1.03;73.08;102337.59;5019259;28;20484;-85
2022/03/06 03:42:52;;;;;;;34.38;20.90;;;;;;;-1.06;73.77;102337.59;5036904;28;20040;-85
2022/03/06 03:45:18;;;;;;;34.20;21.58;;;;;;;-1.10;73.21;102324.56;5018879;28;20476;-85
2022/03/06 03:47:43;;;;;;;32.78;21.02;;;;;;;-1.11;73.81;102331.53;5036797;28;20038;-86
2022/03/06 03:50:09;;;;;;;33.58;20.00;;;;;;;-1.11;73.79;102334.13;5018746;28;20140;-86
2022/03/06 03:52:34;;;;;;;32.75;20.98;;;;;;;-1.11;74.30;102336.75;5018841;28;20476;-86
2022/03/06 03:55:00;;;;;;;33.63;20.63;;;;;;;-1.11;74.07;102336.75;5036462;28;20053;-86
2022/03/06 03:57:25;;;;;;;35.60;21.08;;;;;;;-1.13;73.88;102341.09;5018606;28;20029;-86
2022/03/06 03:59:51;;;;;;;35.03;21.33;;;;;;;-1.12;73.83;102350.66;5018672;28;20491;-86
2022/03/06 04:02:17;;;;;;;33.78;21.83;;;;;;;-1.15;74.34;102348.03;5018651;28;20063;-86
2022/03/06 04:04:42;;;;;;;37.72;21.45;;;;;;;-1.19;74.26;102347.19;5019081;28;20369;-86
2022/03/06 04:07:08;;;;;;;32.85;20.25;;;;;;;-1.19;74.22;102348.94;5018904;28;20382;-86
2022/03/06 04:09:33;;;;;;;34.75;20.90;;;;;;;-1.22;74.11;102346.34;5018873;28;20060;-86
2022/03/06 04:11:59;;;;;;;31.92;20.25;;;;;;;-1.25;74.35;102354.16;5018859;28;20030;-86
2022/03/06 04:14:24;;;;;;;33.75;21.15;;;;;;;-1.27;74.41;102355.91;5035909;28;20033;-86
2022/03/06 04:16:49;;;;;;;32.72;19.85;;;;;;;-1.29;74.76;102366.34;5018470;28;20128;-86
2022/03/06 04:19:15;;;;;;;31.85;19.85;;;;;;;-1.32;74.31;102356.81;5019004;28;20128;-86
2022/03/06 04:21:41;;;;;;;30.35;20.10;;;;;;;-1.31;74.69;102362.88;5036078;28;20107;-86
2022/03/06 04:24:07;;;;;;;32.25;20.15;;;;;;;-1.33;74.86;102365.50;5036237;28;20072;-85
2022/03/06 04:26:33;;;;;;;31.55;20.20;;;;;;;-1.36;74.51;102372.47;5016911;28;20049;-86
2022/03/06 04:28:59;;;;;;;31.95;20.33;;;;;;;-1.36;75.08;102373.31;4999242;28;20544;-85
2022/03/06 04:31:24;;;;;;;33.25;20.17;;;;;;;-1.39;75.32;102375.06;5016472;28;20042;-86
2022/03/06 04:33:52;;;;;;;30.15;19.77;;;;;;;-1.39;75.18;102380.28;4997889;28;20034;-85
2022/03/06 04:36:18;;;;;;;32.47;19.85;;;;;;;-1.43;75.35;102373.31;5015097;28;20374;-86
2022/03/06 04:38:43;;;;;;;30.40;19.55;;;;;;;-1.41;75.35;102374.22;4998772;28;20044;-85
2022/03/06 04:41:10;;;;;;;34.35;21.13;;;;;;;-1.42;75.33;102380.28;5015618;28;20481;-85
2022/03/06 04:43:39;;;;;;;34.33;20.60;;;;;;;-1.43;75.54;102387.25;5016063;28;20076;-85
2022/03/06 04:46:05;;;;;;;32.47;20.42;;;;;;;-1.44;75.43;102382.03;5016276;28;20109;-86
2022/03/06 04:48:30;;;;;;;32.03;20.00;;;;;;;-1.45;75.44;102385.50;5016644;28;20065;-85
2022/03/06 04:50:56;;;;;;;31.52;19.77;;;;;;;-1.49;75.23;102382.03;5015727;28;20132;-85
2022/03/06 04:53:21;;;;;;;31.83;19.30;;;;;;;-1.50;75.76;102383.78;5007296;28;20050;-86
2022/03/06 04:55:47;;;;;;;29.73;20.20;;;;;;;-1.48;75.26;102394.19;5032147;28;20034;-85
2022/03/06 04:58:15;;;;;;;31.80;20.58;;;;;;;-1.50;75.49;102401.13;5017488;28;20037;-85
2022/03/06 05:00:40;;;;;;;32.20;20.33;;;;;;;-1.49;75.41;102410.69;5020807;28;20516;-85
2022/03/06 05:03:05;;;;;;;30.70;20.23;;;;;;;-1.50;75.77;102414.16;4999630;28;20033;-86
2022/03/06 05:05:31;;;;;;;31.42;20.13;;;;;;;-1.52;75.41;102416.75;4998164;28;20041;-85
2022/03/06 05:07:59;;;;;;;32.25;20.92;;;;;;;-1.55;75.37;102419.41;4998324;28;20029;-85
2022/03/06 05:10:24;;;;;;;29.80;19.23;;;;;;;-1.56;75.75;102414.19;4998039;28;20045;-85
2022/03/06 05:12:50;;;;;;;29.55;19.42;;;;;;;-1.57;75.39;102415.91;5015351;28;20444;-85
2022/03/06 05:15:15;;;;;;;29.83;19.25;;;;;;;-1.54;75.38;102409.84;4997797;28;20026;-85
2022/03/06 05:17:41;;;;;;;33.58;20.00;;;;;;;-1.60;75.53;102415.03;4997823;28;20076;-85
2022/03/06 05:20:08;;;;;;;29.48;20.42;;;;;;;-1.64;75.58;102416.78;4997848;28;20459;-85
2022/03/06 05:22:34;;;;;;;29.98;19.67;;;;;;;-1.66;75.57;102418.53;4999200;28;20069;-85
2022/03/06 05:24:59;;;;;;;29.83;20.08;;;;;;;-1.68;75.76;102422.88;4999456;28;20065;-85
2022/03/06 05:27:25;;;;;;;32.00;20.77;;;;;;;-1.68;75.87;102422.88;5019097;28;20034;-85
2022/03/06 05:29:51;;;;;;;29.35;19.52;;;;;;;-1.69;75.71;102426.34;5001464;28;20433;-85
2022/03/06 05:32:16;;;;;;;30.73;19.55;;;;;;;-1.70;75.86;102433.28;4998894;28;20045;-85
2022/03/06 05:34:42;;;;;;;28.63;18.85;;;;;;;-1.70;75.67;102430.69;4999371;28;20045;-85
2022/03/06 05:37:07;;;;;;;29.80;20.33;;;;;;;-1.71;76.14;102435.91;5005811;28;20030;-86
2022/03/06 05:39:33;;;;;;;26.85;18.83;;;;;;;-1.70;75.99;102448.94;5029244;28;20021;-85
2022/03/06 05:41:58;;;;;;;29.25;19.90;;;;;;;-1.74;76.21;102436.75;5025077;28;20046;-86
2022/03/06 05:44:24;;;;;;;27.70;19.13;;;;;;;-1.75;75.88;102432.44;5001702;28;20091;-85
2022/03/06 05:46:50;;;;;;;29.20;19.90;;;;;;;-1.77;75.98;102436.75;5031317;28;20213;-86
2022/03/06 05:49:15;;;;;;;30.58;19.80;;;;;;;-1.80;76.08;102435.88;5031550;28;20044;-85
2022/03/06 05:51:42;;;;;;;28.73;19.50;;;;;;;-1.82;76.20;102442.84;5011278;28;20088;-86
2022/03/06 05:54:08;;;;;;;28.00;19.83;;;;;;;-1.80;76.60;102459.31;5015745;28;20041;-86
2022/03/06 05:56:34;;;;;;;31.27;19.88;;;;;;;-1.80;76.47;102454.09;5000046;28;20081;-86
2022/03/06 05:59:00;;;;;;;28.52;19.27;;;;;;;-1.84;76.24;102453.25;4999746;28;20135;-86
2022/03/06 06:01:29;;;;;;;29.80;19.65;;;;;;;-1.83;76.82;102452.38;5016438;28;20026;-86
2022/03/06 06:03:55;;;;;;;27.67;18.80;;;;;;;-1.85;76.48;102451.50;4998784;28;20030;-86
2022/03/06 06:06:21;;;;;;;28.77;19.67;;;;;;;-1.83;76.42;102459.31;5015656;28;20065;-86
2022/03/06 06:08:46;;;;;;;28.98;19.33;;;;;;;-1.86;76.19;102452.38;4998521;28;20037;-86
2022/03/06 06:11:11;;;;;;;28.05;19.05;;;;;;;-1.85;76.54;102469.72;5016109;28;20098;-86
2022/03/06 06:13:37;;;;;;;30.38;19.42;;;;;;;-1.85;76.22;102464.50;4998483;28;20425;-86
2022/03/06 06:16:03;;;;;;;28.65;20.17;;;;;;;-1.88;76.66;102468.00;4998365;28;20066;-86
2022/03/06 06:18:31;;;;;;;28.85;20.35;;;;;;;-1.86;76.48;102471.47;4998992;28;20489;-86
2022/03/06 06:20:57;;;;;;;27.15;19.83;;;;;;;-1.88;76.44;102480.16;5016279;28;20396;-86
2022/03/06 06:23:23;;;;;;;29.42;19.85;;;;;;;-1.86;76.51;102479.28;5016328;28;20069;-86
2022/03/06 06:25:50;;;;;;;27.88;19.90;;;;;;;-1.88;76.50;102475.81;4998840;28;20042;-86
2022/03/06 06:28:16;;;;;;;28.05;19.42;;;;;;;-1.84;76.31;102489.72;4999132;28;20045;-86
2022/03/06 06:30:41;;;;;;;26.90;19.05;;;;;;;-1.86;76.59;102481.88;4999502;28;20041;-86
2022/03/06 06:33:07;;;;;;;28.20;20.00;;;;;;;-1.87;76.65;102480.13;4998927;28;20034;-86
2022/03/06 06:35:34;;;;;;;28.58;20.38;;;;;;;-1.82;76.51;102489.72;5016450;28;20121;-86
2022/03/06 06:37:59;;;;;;;29.67;20.40;;;;;;;-1.86;77.07;102483.63;4998319;28;20034;-86
2022/03/06 06:40:25;;;;;;;28.38;18.85;;;;;;;-1.83;76.32;102490.56;4998849;28;20034;-86
2022/03/06 06:42:50;;;;;;;30.42;20.30;;;;;;;-1.84;76.53;102491.44;4999605;28;20034;-87
2022/03/06 06:45:16;;;;;;;26.92;20.08;;;;;;;-1.81;76.55;102497.53;5015875;28;20034;-87
2022/03/06 06:47:41;;;;;;;26.40;18.20;;;;;;;-1.79;76.45;102497.53;5015232;28;20049;-86
2022/03/06 06:50:07;;;;;;;28.88;18.92;;;;;;;-1.79;76.23;102497.53;4998317;28;20033;-87
2022/03/06 06:52:32;;;;;;;30.67;19.40;;;;;;;-1.79;76.15;102500.13;4981474;28;20381;-87
2022/03/06 06:54:57;;;;;;;28.10;19.33;;;;;;;-1.78;76.33;102505.34;5014571;28;20048;-86
2022/03/06 06:57:23;;;;;;;28.35;19.05;;;;;;;-1.78;76.56;102505.34;5017963;28;20124;-86
2022/03/06 06:59:51;;;;;;;26.15;19.38;;;;;;;-1.78;76.75;102502.75;5017905;28;20128;-86
2022/03/06 07:02:16;;;;;;;29.17;19.90;;;;;;;-1.75;75.87;102518.38;5017954;28;20104;-86
2022/03/06 07:04:42;;;;;;;29.95;19.48;;;;;;;-1.73;76.40;102523.59;5018677;28;20120;-86
2022/03/06 07:07:07;;;;;;;31.00;20.15;;;;;;;-1.71;76.12;102524.47;5019087;28;20427;-85
2022/03/06 07:09:33;;;;;;;29.75;19.92;;;;;;;-1.73;76.43;102521.00;5000578;28;20041;-85
2022/03/06 07:11:58;;;;;;;26.58;19.40;;;;;;;-1.70;76.58;102529.69;5018474;28;20046;-85
2022/03/06 07:14:23;;;;;;;29.92;20.08;;;;;;;-1.70;76.67;102527.06;5018269;28;20041;-85
2022/03/06 07:17:09;;;;;;;28.88;20.23;;;;;;;-1.63;76.61;102529.66;5017041;28;20034;-84
2022/03/06 07:19:35;;;;;;;27.33;19.08;;;;;;;-1.64;76.74;102526.19;4999786;28;20056;-84
2022/03/06 07:22:03;;;;;;;28.15;20.13;;;;;;;-1.58;76.68;102527.94;5035426;28;20042;-84
2022/03/06 07:24:29;;;;;;;28.50;19.92;;;;;;;-1.57;76.53;102525.34;5018482;28;20534;-84
2022/03/06 07:26:57;;;;;;;28.98;19.95;;;;;;;-1.54;76.54;102538.38;5014905;28;20046;-84
2022/03/06 07:29:22;;;;;;;27.38;19.95;;;;;;;-1.52;76.48;102535.78;4999064;28;20049;-84
2022/03/06 07:31:48;;;;;;;26.98;19.13;;;;;;;-1.49;76.26;102539.25;5001039;28;20030;-84
2022/03/06 07:34:13;;;;;;;30.02;19.55;;;;;;;-1.45;76.63;102541.84;4983461;28;20460;-84
2022/03/06 07:36:39;;;;;;;26.90;18.95;;;;;;;-1.42;76.56;102539.25;5000087;28;20042;-84
2022/03/06 07:39:04;;;;;;;26.55;20.38;;;;;;;-1.36;76.50;102547.94;5001160;28;20042;-84
2022/03/06 07:41:33;;;;;;;28.58;19.63;;;;;;;-1.34;76.43;102553.16;5006452;28;20038;-85
2022/03/06 07:44:05;;;;;;;27.20;19.87;;;;;;;-1.28;76.01;102554.88;5011735;28;20045;-84
2022/03/06 07:46:31;;;;;;;29.55;19.02;;;;;;;-1.22;76.45;102565.31;5011439;28;20033;-84
2022/03/06 07:48:59;;;;;;;28.10;19.23;;;;;;;-1.19;76.23;102567.94;5003670;28;20038;-85
2022/03/06 07:51:27;;;;;;;26.67;20.88;;;;;;;-1.14;75.72;102574.03;5024562;28;20061;-85
2022/03/06 07:53:54;;;;;;;25.27;18.92;;;;;;;-1.08;75.86;102574.03;5002669;28;20050;-84
2022/03/06 07:56:20;;;;;;;24.67;18.95;;;;;;;-1.03;75.69;102577.50;5017083;28;20378;-85
2022/03/06 07:58:45;;;;;;;29.30;19.52;;;;;;;-1.00;75.66;102568.78;5000786;28;20037;-84
2022/03/06 08:01:11;;;;;;;25.83;19.02;;;;;;;-0.94;75.35;102579.22;4999372;28;20440;-85
2022/03/06 08:03:37;;;;;;;27.35;20.27;;;;;;;-0.85;75.97;102589.66;5000471;28;20041;-85
2022/03/06 08:06:02;;;;;;;28.15;19.70;;;;;;;-0.77;75.55;102590.53;5003212;28;20477;-85
2022/03/06 08:08:27;;;;;;;26.45;19.60;;;;;;;-0.70;75.30;102586.19;5008542;28;20034;-85
2022/03/06 08:10:53;;;;;;;27.10;19.15;;;;;;;-0.61;74.56;102587.91;5008662;28;20071;-85
2022/03/06 08:13:19;;;;;;;26.27;19.20;;;;;;;-0.52;74.46;102594.81;5019412;28;20034;-85
2022/03/06 08:15:45;;;;;;;29.02;17.98;;;;;;;-0.38;74.44;102593.06;5021936;28;20046;-85
2022/03/06 08:18:13;;;;;;;26.05;19.67;;;;;;;-0.31;74.35;102592.16;5038162;28;20631;-87
2022/03/06 08:20:38;;;;;;;26.90;19.52;;;;;;;-0.10;74.26;102595.56;5036815;28;20030;-86
2022/03/06 08:23:04;;;;;;;27.92;19.20;;;;;;;0.06;74.00;102596.38;5027897;28;20097;-85
2022/03/06 08:25:30;;;;;;;27.52;19.70;;;;;;;0.26;73.90;102597.16;4998244;28;20326;-85
2022/03/06 08:28:00;;;;;;;25.92;18.73;;;;;;;0.49;72.95;102597.00;5010478;28;20038;-85
2022/03/06 08:30:25;;;;;;;26.38;18.45;;;;;;;0.69;72.06;102601.25;5023362;28;20034;-85
2022/03/06 08:32:55;;;;;;;26.10;19.55;;;;;;;0.90;71.85;102597.63;5031617;28;20053;-85
2022/03/06 08:35:21;;;;;;;24.77;19.23;;;;;;;1.07;70.81;102595.72;5027543;28;20064;-85
2022/03/06 08:37:46;;;;;;;25.95;19.30;;;;;;;1.32;71.13;102595.50;5027774;28;20465;-85
2022/03/06 08:40:11;;;;;;;23.85;18.10;;;;;;;1.51;70.37;102603.16;5002832;28;20057;-84
2022/03/06 08:42:37;;;;;;;24.50;17.73;;;;;;;1.69;69.63;102602.97;5011400;28;20037;-85
2022/03/06 08:45:03;;;;;;;25.80;18.33;;;;;;;1.84;68.72;102608.00;5012717;28;20048;-85
2022/03/06 08:47:31;;;;;;;22.35;17.25;;;;;;;2.06;68.08;102609.53;5026737;28;20092;-85
2022/03/06 08:49:56;;;;;;;23.67;17.65;;;;;;;2.20;67.39;102600.59;5011035;28;20030;-84
2022/03/06 08:52:21;;;;;;;22.77;17.67;;;;;;;2.42;67.79;102609.94;5012594;28;20124;-85
2022/03/06 08:54:47;;;;;;;23.42;16.98;;;;;;;2.62;67.37;102610.50;5010498;28;20060;-84
2022/03/06 08:57:12;;;;;;;20.58;16.23;;;;;;;2.77;66.91;102605.00;5031165;28;20040;-85
2022/03/06 08:59:37;;;;;;;20.80;16.10;;;;;;;2.93;65.79;102603.03;4986849;28;20128;-87
2022/03/06 09:02:03;;;;;;;23.73;16.25;;;;;;;3.05;65.23;102609.81;5027066;28;20038;-85
2022/03/06 09:04:31;;;;;;;21.80;16.75;;;;;;;3.23;64.95;102607.75;5013491;28;20036;-85
2022/03/06 09:06:57;;;;;;;20.77;16.48;;;;;;;3.39;63.58;102611.00;5013699;28;20052;-85
2022/03/06 09:09:22;;;;;;;21.77;16.98;;;;;;;3.52;63.54;102612.50;5027352;28;20034;-86
2022/03/06 09:11:55;;;;;;;22.92;16.48;;;;;;;3.74;63.01;102614.72;4993439;28;20442;-85
2022/03/06 09:14:21;;;;;;;20.98;16.05;;;;;;;3.87;62.92;102608.34;4986983;28;20057;-85
2022/03/06 09:16:46;;;;;;;21.33;16.60;;;;;;;4.01;61.83;102611.56;4991695;28;20041;-85
2022/03/06 09:19:11;;;;;;;22.30;16.02;;;;;;;4.17;61.33;102613.84;5024341;28;20034;-85
2022/03/06 09:21:38;;;;;;;19.33;15.45;;;;;;;4.35;59.93;102612.59;5020781;28;20030;-85
2022/03/06 09:24:05;;;;;;;20.75;16.15;;;;;;;4.53;60.23;102612.19;5025965;28;20085;-85
2022/03/06 09:26:30;;;;;;;21.65;15.65;;;;;;;4.67;60.05;102609.22;5010593;28;20489;-85
2022/03/06 09:28:55;;;;;;;20.45;15.75;;;;;;;4.77;57.81;102612.50;5021676;28;20042;-85
2022/03/06 09:31:22;;;;;;;21.70;15.55;;;;;;;4.86;57.75;102611.41;5022964;28;20040;-85
2022/03/06 09:33:47;;;;;;;19.48;14.77;;;;;;;4.97;56.97;102606.75;5028535;28;20030;-86
2022/03/06 09:36:13;;;;;;;22.25;16.02;;;;;;;5.07;56.43;102597.72;5008723;28;20093;-84
2022/03/06 09:38:38;;;;;;;19.60;14.90;;;;;;;5.22;57.33;102603.50;5014646;28;20044;-85
2022/03/06 09:41:04;;;;;;;18.52;13.98;;;;;;;5.36;56.05;102602.25;4993623;28;20473;-85
2022/03/06 09:43:32;;;;;;;18.60;15.07;;;;;;;5.57;57.24;102600.78;4986387;28;20046;-84
2022/03/06 09:46:07;;;;;;;17.90;14.85;;;;;;;5.77;56.19;102593.25;5004951;28;20038;-86
2022/03/06 09:48:32;;;;;;;17.77;14.38;;;;;;;5.88;54.13;102594.66;4999116;28;20116;-85
2022/03/06 09:51:01;;;;;;;17.48;14.35;;;;;;;6.00;55.08;102600.53;4998936;28;20505;-85
2022/03/06 09:53:26;;;;;;;17.42;14.73;;;;;;;6.01;53.63;102597.84;4982095;28;20038;-85
2022/03/06 09:55:52;;;;;;;20.17;14.75;;;;;;;6.16;53.99;102590.38;4981337;28;20102;-85
2022/03/06 09:58:17;;;;;;;18.45;15.25;;;;;;;6.32;53.92;102596.06;4990987;28;20023;-86
2022/03/06 10:00:42;;;;;;;18.05;14.23;;;;;;;6.43;54.05;102602.75;5001381;28;20500;-85
2022/03/06 10:03:17;;;;;;;19.77;14.85;;;;;;;6.67;54.78;102592.31;4998664;28;20086;-85
2022/03/06 10:05:46;;;;;;;17.40;14.27;;;;;;;6.88;53.79;102590.75;4984350;28;20089;-85
2022/03/06 10:08:29;;;;;;;16.65;13.95;;;;;;;7.01;52.28;102594.72;5004154;28;20044;-86
2022/03/06 10:10:57;;;;;;;15.80;13.48;;;;;;;6.97;51.48;102593.09;4986976;28;20049;-86
2022/03/06 10:13:33;;;;;;;16.55;13.57;;;;;;;7.10;52.02;102590.91;5001436;28;20043;-85
2022/03/06 10:16:04;;;;;;;17.83;14.02;;;;;;;7.25;51.01;102588.66;4984480;28;20034;-86
2022/03/06 10:18:31;;;;;;;17.50;13.43;;;;;;;7.40;50.67;102596.03;5002514;28;20040;-85
2022/03/06 10:21:08;;;;;;;17.58;13.48;;;;;;;7.43;49.72;102589.78;5002779;28;20030;-86
2022/03/06 10:23:34;;;;;;;16.17;12.98;;;;;;;7.40;49.26;102599.53;5006437;28;20035;-86
2022/03/06 10:26:04;;;;;;;15.23;12.18;;;;;;;7.49;49.44;102603.63;5003497;28;20061;-85
2022/03/06 10:28:30;;;;;;;16.63;12.75;;;;;;;7.46;49.47;102600.25;5002770;28;20038;-85
2022/03/06 10:31:04;;;;;;;16.00;13.32;;;;;;;7.59;50.38;102604.19;4988019;28;20053;-86
2022/03/06 10:33:30;;;;;;;16.23;12.50;;;;;;;7.70;49.48;102603.81;5007881;28;20085;-85
2022/03/06 10:35:58;;;;;;;13.95;12.45;;;;;;;7.69;48.13;102592.34;5007715;28;20062;-86
2022/03/06 10:38:28;;;;;;;15.30;12.63;;;;;;;7.76;48.70;102598.28;5003539;28;20042;-87
2022/03/06 10:40:55;;;;;;;14.07;11.52;;;;;;;7.73;48.27;102607.19;4999266;28;20182;-85
2022/03/06 10:43:25;;;;;;;16.27;11.90;;;;;;;7.84;48.62;102600.66;5009695;28;20038;-86
2022/03/06 10:46:05;;;;;;;14.02;11.43;;;;;;;7.98;49.11;102608.94;5012142;28;20046;-86
2022/03/06 10:48:30;;;;;;;15.90;12.05;;;;;;;8.06;48.64;102595.41;4991290;28;20066;-86
2022/03/06 10:51:00;;;;;;;15.73;12.15;;;;;;;8.22;48.53;102595.69;5007747;28;20066;-86
2022/03/06 10:53:28;;;;;;;13.77;11.68;;;;;;;8.25;48.12;102595.59;4988502;28;20042;-85
2022/03/06 10:55:54;;;;;;;14.52;11.40;;;;;;;8.31;48.66;102595.31;5007769;28;20038;-85
2022/03/06 10:58:20;;;;;;;14.07;11.80;;;;;;;8.38;47.29;102601.28;5017813;28;20078;-87
2022/03/06 11:00:47;;;;;;;15.63;11.77;;;;;;;8.45;46.98;102595.69;5021755;28;20042;-86
2022/03/06 11:03:13;;;;;;;12.68;11.23;;;;;;;8.54;45.98;102590.97;5003358;28;20042;-86
2022/03/06 11:05:46;;;;;;;13.95;10.68;;;;;;;8.64;46.58;102595.84;4989632;28;20543;-85
2022/03/06 11:08:16;;;;;;;18.08;11.38;;;;;;;8.70;45.26;102592.91;5018846;28;20082;-87